createdAt,value
2018-03-04T00:02:23.763Z,96259.59
2018-03-04T00:04:52.049Z,96267.65
2018-03-04T00:07:20.304Z,96271.28
2018-03-04T00:09:49.340Z,96259.92
2018-03-04T00:12:17.608Z,96272.38
2018-03-04T00:14:45.867Z,96273.59
2018-03-04T00:17:14.152Z,96274.61
2018-03-04T00:19:43.181Z,96270.84
2018-03-04T00:22:11.453Z,96261.66
2018-03-04T00:24:39.721Z,96276.73
2018-03-04T00:27:08.770Z,96275.64
2018-03-04T00:29:37.034Z,96270.78
2018-03-04T00:32:06.088Z,96281.00
2018-03-04T00:34:34.347Z,96281.80
2018-03-04T00:37:02.615Z,96282.73
2018-03-04T00:39:31.641Z,96282.09
2018-03-04T00:41:59.927Z,96284.91
2018-03-04T00:44:28.184Z,96261.23
2018-03-04T00:46:56.464Z,96283.14
2018-03-04T00:49:24.732Z,96280.47
2018-03-04T00:51:53.738Z,96295.30
2018-03-04T00:54:22.004Z,96295.22
2018-03-04T00:56:50.279Z,96299.27
2018-03-04T00:59:18.760Z,96304.86
2018-03-04T01:01:47.813Z,96295.30
2018-03-04T01:04:16.064Z,96300.88
2018-03-04T01:06:44.343Z,96299.23
2018-03-04T01:09:13.368Z,96290.97
2018-03-04T01:11:41.693Z,96302.33
2018-03-04T01:14:10.724Z,96309.80
2018-03-04T01:16:38.994Z,96304.84
2018-03-04T01:19:07.265Z,96302.05
2018-03-04T01:21:35.536Z,96307.13
2018-03-04T01:24:03.806Z,96303.59
2018-03-04T01:26:32.768Z,96277.59
2018-03-04T01:29:01.068Z,96266.78
2018-03-04T01:31:29.321Z,96278.63
2018-03-04T01:33:57.589Z,96287.80
2018-03-04T01:36:25.839Z,96292.84
2018-03-04T01:38:54.129Z,96291.03
2018-03-04T01:41:23.148Z,96282.08
2018-03-04T01:43:52.423Z,96285.49
2018-03-04T01:46:20.693Z,96285.62
2018-03-04T01:48:48.960Z,96280.27
2018-03-04T01:51:17.217Z,96275.84
2018-03-04T01:53:46.308Z,96273.62
2018-03-04T01:56:14.578Z,96269.09
2018-03-04T01:58:42.872Z,96277.08
2018-03-04T02:01:11.129Z,96277.32
2018-03-04T02:03:39.405Z,96276.59
2018-03-04T02:06:07.668Z,96274.82
2018-03-04T02:08:36.704Z,96271.85
2018-03-04T02:11:06.319Z,96261.46
2018-03-04T02:13:35.369Z,96272.48
2018-03-04T02:16:03.624Z,96274.53
2018-03-04T02:18:31.891Z,96266.15
2018-03-04T02:21:00.937Z,96265.11
2018-03-04T02:23:29.211Z,96265.93
2018-03-04T02:25:57.481Z,96274.86
2018-03-04T02:28:26.530Z,96273.75
2018-03-04T02:30:54.784Z,96283.89
2018-03-04T02:33:23.061Z,96278.64
2018-03-04T02:35:52.851Z,96276.88
2018-03-04T02:38:21.125Z,96262.80
2018-03-04T02:40:49.377Z,96271.27
2018-03-04T02:43:17.663Z,96270.64
2018-03-04T02:45:45.926Z,96278.12
2018-03-04T02:48:14.973Z,96274.52
2018-03-04T02:50:43.246Z,96278.09
2018-03-04T02:53:11.532Z,96276.98
2018-03-04T02:55:39.811Z,96274.86
2018-03-04T02:58:09.578Z,96274.47
2018-03-04T03:00:37.862Z,96280.56
2018-03-04T03:03:06.126Z,96272.42
2018-03-04T03:05:34.409Z,96272.66
2018-03-04T03:08:02.693Z,96267.70
2018-03-04T03:10:31.728Z,96263.30
2018-03-04T03:12:59.993Z,96259.20
2018-03-04T03:15:29.039Z,96262.05
2018-03-04T03:17:57.323Z,96256.87
2018-03-04T03:20:25.608Z,96261.76
2018-03-04T03:22:53.869Z,96260.27
2018-03-04T03:25:23.285Z,96272.98
2018-03-04T03:27:51.556Z,96271.80
2018-03-04T03:30:20.595Z,96274.86
2018-03-04T03:32:49.188Z,96271.45
2018-03-04T03:35:17.456Z,96261.87
2018-03-04T03:37:46.476Z,96260.62
2018-03-04T03:40:14.753Z,96267.19
2018-03-04T03:42:43.032Z,96260.00
2018-03-04T03:45:12.082Z,96249.16
2018-03-04T03:47:40.402Z,96252.39
2018-03-04T03:50:09.444Z,96248.77
2018-03-04T03:52:38.468Z,96241.17
2018-03-04T03:55:06.772Z,96245.38
2018-03-04T03:57:35.024Z,96245.16
2018-03-04T04:00:04.059Z,96243.08
2018-03-04T04:02:32.316Z,96237.15
2018-03-04T04:05:01.367Z,96240.28
2018-03-04T04:07:29.623Z,96244.77
2018-03-04T04:09:58.680Z,96247.25
2018-03-04T04:12:26.944Z,96247.08
2018-03-04T04:14:55.212Z,96244.30
2018-03-04T04:17:23.506Z,96246.73
2018-03-04T04:19:51.774Z,96240.41
2018-03-04T04:22:20.806Z,96237.17
2018-03-04T04:24:49.069Z,96238.38
2018-03-04T04:27:18.110Z,96246.49
2018-03-04T04:29:46.381Z,96243.93
2018-03-04T04:32:14.659Z,96242.20
2018-03-04T04:34:43.693Z,96247.62
2018-03-04T04:37:11.957Z,96248.37
2018-03-04T04:39:41.015Z,96248.17
2018-03-04T04:42:10.016Z,96244.58
2018-03-04T04:44:39.171Z,96231.34
2018-03-04T04:47:08.229Z,96230.03
2018-03-04T04:49:36.508Z,96224.72
2018-03-04T04:52:04.784Z,96228.51
2018-03-04T04:54:33.048Z,96231.88
2018-03-04T04:57:02.088Z,96227.04
2018-03-04T04:59:30.347Z,96225.64
2018-03-04T05:01:59.377Z,96223.13
2018-03-04T05:04:27.655Z,96218.85
2018-03-04T05:06:55.931Z,96225.72
2018-03-04T05:09:24.969Z,96217.56
2018-03-04T05:11:53.244Z,96213.27
2018-03-04T05:14:21.504Z,96219.58
2018-03-04T05:16:50.549Z,96219.31
2018-03-04T05:19:18.800Z,96219.36
2018-03-04T05:21:47.845Z,96224.36
2018-03-04T05:24:16.119Z,96221.72
2018-03-04T05:26:44.399Z,96217.11
2018-03-04T05:29:12.668Z,96220.78
2018-03-04T05:31:40.947Z,96235.84
2018-03-04T05:34:09.224Z,96227.29
2018-03-04T05:36:37.476Z,96228.04
2018-03-04T05:39:05.756Z,96231.07
2018-03-04T05:41:34.012Z,96231.52
2018-03-04T05:44:02.297Z,96234.24
2018-03-04T05:46:30.561Z,96235.50
2018-03-04T05:48:58.846Z,96231.28
2018-03-04T05:51:27.104Z,96232.98
2018-03-04T05:53:55.398Z,96234.25
2018-03-04T05:56:23.661Z,96231.77
2018-03-04T05:58:52.707Z,96239.78
2018-03-04T06:01:20.973Z,96226.92
2018-03-04T06:03:49.248Z,96225.14
2018-03-04T06:06:18.284Z,96226.00
2018-03-04T06:08:46.552Z,96223.67
2018-03-04T06:11:14.812Z,96220.16
2018-03-04T06:13:43.992Z,96217.28
2018-03-04T06:16:12.249Z,96214.31
2018-03-04T06:18:40.528Z,96211.55
2018-03-04T06:21:08.812Z,96210.70
2018-03-04T06:23:37.862Z,96213.16
2018-03-04T06:26:06.123Z,96216.98
2018-03-04T06:28:34.397Z,96210.08
2018-03-04T06:31:02.661Z,96214.92
2018-03-04T06:33:30.952Z,96206.99
2018-03-04T06:35:59.988Z,96205.41
2018-03-04T06:38:28.262Z,96205.88
2018-03-04T06:40:57.282Z,96206.25
2018-03-04T06:43:25.558Z,96202.61
2018-03-04T06:45:54.591Z,96201.70
2018-03-04T06:48:22.873Z,96206.20
2018-03-04T06:50:51.150Z,96203.76
2018-03-04T06:53:20.179Z,96210.86
2018-03-04T06:55:48.475Z,96214.13
2018-03-04T06:58:17.499Z,96215.42
2018-03-04T07:00:45.772Z,96218.13
2018-03-04T07:03:14.039Z,96216.59
2018-03-04T07:05:42.315Z,96211.78
2018-03-04T07:08:10.585Z,96213.71
2018-03-04T07:10:38.856Z,96224.69
2018-03-04T07:13:07.109Z,96212.81
2018-03-04T07:15:35.388Z,96215.66
2018-03-04T07:18:03.652Z,96212.02
2018-03-04T07:20:33.080Z,96199.25
2018-03-04T07:23:01.339Z,96203.74
2018-03-04T07:25:29.603Z,96206.56
2018-03-04T07:27:57.864Z,96208.70
2018-03-04T07:30:26.141Z,96216.30
2018-03-04T07:32:55.156Z,96221.48
2018-03-04T07:35:23.447Z,96219.03
2018-03-04T07:37:52.480Z,96215.73
2018-03-04T07:40:20.765Z,96219.53
2018-03-04T07:42:49.027Z,96218.63
2018-03-04T07:45:17.293Z,96219.41
2018-03-04T07:47:46.304Z,96215.64
2018-03-04T07:50:14.584Z,96208.39
2018-03-04T07:52:44.368Z,96215.38
2018-03-04T07:55:12.630Z,96212.30
2018-03-04T07:57:40.888Z,96208.98
2018-03-04T08:00:09.926Z,96205.46
2018-03-04T08:02:38.203Z,96207.39
2018-03-04T08:05:06.480Z,96197.50
2018-03-04T08:07:35.508Z,96188.68
2018-03-04T08:10:03.763Z,96194.97
2018-03-04T08:12:32.774Z,96192.67
2018-03-04T08:15:01.857Z,96174.84
2018-03-04T08:17:30.174Z,96173.05
2018-03-04T08:19:59.230Z,96176.65
2018-03-04T08:22:28.303Z,96178.02
2018-03-04T08:25:14.337Z,96181.38
2018-03-04T08:30:51.854Z,96173.03
2018-03-04T08:33:20.148Z,96167.78
2018-03-04T08:35:49.217Z,96167.34
2018-03-04T08:38:17.511Z,96168.03
2018-03-04T08:40:45.881Z,96166.86
2018-03-04T08:43:15.050Z,96174.57
2018-03-04T08:45:44.381Z,96169.53
2018-03-04T08:48:13.597Z,96170.49
2018-03-04T08:50:42.116Z,96190.46
2018-03-04T08:53:10.396Z,96172.88
2018-03-04T08:55:38.699Z,96170.02
2018-03-04T08:58:07.072Z,96180.74
2018-03-04T09:00:36.159Z,96176.66
2018-03-04T09:03:04.532Z,96177.19
2018-03-04T09:05:32.808Z,96172.95
2018-03-04T09:08:01.095Z,96177.95
2018-03-04T09:10:29.357Z,96169.63
2018-03-04T09:12:57.658Z,96164.74
2018-03-04T09:15:25.921Z,96172.16
2018-03-04T09:17:54.234Z,96176.76
2018-03-04T09:20:22.516Z,96178.58
2018-03-04T09:22:50.869Z,96187.55
2018-03-04T09:25:20.640Z,96170.16
2018-03-04T09:27:48.950Z,96158.78
2018-03-04T09:30:17.197Z,96168.22
2018-03-04T09:32:45.581Z,96167.42
2018-03-04T09:35:13.954Z,96159.36
2018-03-04T09:37:43.150Z,96158.58
2018-03-04T09:40:11.512Z,96149.84
2018-03-04T09:42:39.813Z,96148.05
2018-03-04T09:47:29.202Z,96137.27
2018-03-04T09:49:57.469Z,96134.88
2018-03-04T09:52:26.547Z,96134.90
2018-03-04T09:54:55.572Z,96127.83
2018-03-04T09:57:23.897Z,96120.98
2018-03-04T09:59:52.160Z,96123.05
2018-03-04T10:02:20.457Z,96124.67
2018-03-04T10:04:48.749Z,96122.81
2018-03-04T10:07:17.088Z,96117.30
2018-03-04T10:09:45.473Z,96109.56
2018-03-04T10:12:14.554Z,96111.68
2018-03-04T10:14:42.965Z,96100.81
2018-03-04T10:17:11.258Z,96107.14
2018-03-04T10:19:39.580Z,96113.39
2018-03-04T10:22:08.640Z,96110.88
2018-03-04T10:24:36.926Z,96107.92
2018-03-04T10:27:05.189Z,96102.89
2018-03-04T10:29:33.517Z,96093.11
2018-03-04T10:32:02.939Z,96079.41
2018-03-04T10:34:31.252Z,96082.05
2018-03-04T10:37:00.282Z,96084.30
2018-03-04T10:39:29.389Z,96092.69
2018-03-04T10:41:58.429Z,96097.60
2018-03-04T10:44:26.734Z,96098.48
2018-03-04T10:46:55.120Z,96102.00
2018-03-04T10:49:23.464Z,96106.43
2018-03-04T10:51:51.764Z,96110.17
2018-03-04T10:54:20.060Z,96120.70
2018-03-04T10:56:48.384Z,96105.92
2018-03-04T10:59:16.865Z,96110.83
2018-03-04T11:01:48.349Z,96097.61
2018-03-04T11:04:16.686Z,96101.80
2018-03-04T11:06:45.795Z,96103.33
2018-03-04T11:09:15.645Z,96105.36
2018-03-04T11:11:44.025Z,96107.00
2018-03-04T11:14:12.406Z,96105.54
2018-03-04T11:16:41.557Z,96115.19
2018-03-04T11:19:09.851Z,96113.42
2018-03-04T11:21:38.164Z,96109.31
2018-03-04T11:24:06.440Z,96105.64
2018-03-04T11:26:34.753Z,96104.14
2018-03-04T11:29:03.801Z,96099.97
2018-03-04T11:31:32.103Z,96094.45
2018-03-04T11:34:00.421Z,96088.64
2018-03-04T11:36:28.691Z,96091.44
2018-03-04T11:38:56.967Z,96088.31
2018-03-04T11:41:25.245Z,96075.11
2018-03-04T11:43:53.501Z,96085.69
2018-03-04T11:46:22.560Z,96073.59
2018-03-04T11:48:50.827Z,96073.42
2018-03-04T11:51:19.170Z,96065.87
2018-03-04T11:56:24.534Z,96064.70
2018-03-04T11:58:52.809Z,96059.38
2018-03-04T12:01:21.138Z,96065.39
2018-03-04T12:03:49.421Z,96060.92
2018-03-04T12:06:17.700Z,96059.59
2018-03-04T12:08:45.988Z,96057.48
2018-03-04T12:11:14.347Z,96048.16
2018-03-04T12:13:42.660Z,96037.52
2018-03-04T12:16:10.958Z,96033.34
2018-03-04T12:18:39.293Z,96024.52
2018-03-04T12:21:07.602Z,96011.42
2018-03-04T12:23:35.935Z,96013.69
2018-03-04T12:26:04.254Z,96005.64
2018-03-04T12:28:32.548Z,96005.41
2018-03-04T12:31:01.589Z,95996.95
2018-03-04T12:33:29.901Z,95977.91
2018-03-04T12:35:58.186Z,95973.55
2018-03-04T12:38:26.514Z,95958.38
2018-03-04T12:40:54.757Z,95952.28
2018-03-04T12:43:23.051Z,95950.16
2018-03-04T12:45:51.331Z,95941.32
2018-03-04T12:48:19.623Z,95948.59
2018-03-04T12:50:47.939Z,95934.21
2018-03-04T12:53:16.266Z,95938.80
2018-03-04T12:55:45.400Z,95949.11
2018-03-04T12:58:13.750Z,95954.48
2018-03-04T13:00:42.153Z,95946.63
2018-03-04T13:03:10.458Z,95950.39
2018-03-04T13:05:38.765Z,95948.09
2018-03-04T13:08:07.084Z,95950.00
2018-03-04T13:10:35.359Z,95941.30
2018-03-04T13:13:03.720Z,95954.47
2018-03-04T13:15:32.026Z,95942.45
2018-03-04T13:18:00.320Z,95920.58
2018-03-04T13:20:28.600Z,95915.20
2018-03-04T13:22:56.926Z,95918.38
2018-03-04T13:25:25.245Z,95917.31
2018-03-04T13:27:54.295Z,95915.89
2018-03-04T13:30:22.580Z,95924.03
2018-03-04T13:32:50.904Z,95916.05
2018-03-04T13:35:19.181Z,95915.44
2018-03-04T13:37:47.519Z,95913.06
2018-03-04T13:40:16.654Z,95906.61
2018-03-04T13:42:45.027Z,95900.04
2018-03-04T13:45:13.402Z,95898.84
2018-03-04T13:47:42.586Z,95893.52
2018-03-04T13:50:11.701Z,95887.47
2018-03-04T13:52:39.996Z,95899.81
2018-03-04T13:55:08.302Z,95893.90
2018-03-04T13:57:37.388Z,95898.53
2018-03-04T14:00:05.672Z,95909.86
2018-03-04T14:02:33.980Z,95907.24
2018-03-04T14:05:02.306Z,95902.69
2018-03-04T14:07:30.581Z,95897.91
2018-03-04T14:09:58.904Z,95890.81
2018-03-04T14:12:27.160Z,95880.88
2018-03-04T14:14:56.240Z,95884.45
2018-03-04T14:17:24.572Z,95890.16
2018-03-04T14:19:53.768Z,95888.03
2018-03-04T14:22:22.850Z,95880.81
2018-03-04T14:24:51.124Z,95889.56
2018-03-04T14:27:19.404Z,95895.58
2018-03-04T14:29:47.797Z,95887.52
2018-03-04T14:32:16.104Z,95877.04
2018-03-04T14:34:44.512Z,95877.64
2018-03-04T14:37:13.735Z,95873.66
2018-03-04T14:39:44.540Z,95875.00
2018-03-04T14:42:12.961Z,95880.09
2018-03-04T14:44:41.352Z,95880.69
2018-03-04T14:47:09.600Z,95883.50
2018-03-04T14:49:37.894Z,95880.67
2018-03-04T14:52:06.392Z,95881.78
2018-03-04T14:54:34.703Z,95870.44
2018-03-04T14:57:03.030Z,95867.88
2018-03-04T14:59:32.561Z,95853.02
2018-03-04T15:02:00.843Z,95856.48
2018-03-04T15:04:29.882Z,95851.30
2018-03-04T15:06:58.196Z,95840.34
2018-03-04T15:09:26.498Z,95845.85
2018-03-04T15:11:54.794Z,95855.17
2018-03-04T15:14:23.864Z,95857.71
2018-03-04T15:16:52.157Z,95857.78
2018-03-04T15:19:20.432Z,95858.79
2018-03-04T15:21:48.765Z,95860.35
2018-03-04T15:24:17.065Z,95855.15
2018-03-04T15:26:45.406Z,95862.58
2018-03-04T15:29:13.861Z,95856.30
2018-03-04T15:31:43.016Z,95869.14
2018-03-04T15:34:11.357Z,95864.52
2018-03-04T15:36:40.408Z,95866.69
2018-03-04T15:39:08.690Z,95869.05
2018-03-04T15:41:37.004Z,95871.68
2018-03-04T15:44:05.308Z,95871.52
2018-03-04T15:46:33.647Z,95864.95
2018-03-04T15:49:02.017Z,95859.39
2018-03-04T15:51:31.104Z,95853.23
2018-03-04T15:53:59.392Z,95855.93
2018-03-04T15:56:27.687Z,95857.09
2018-03-04T15:58:55.968Z,95858.68
2018-03-04T16:01:24.259Z,95864.74
2018-03-04T16:03:52.544Z,95869.66
2018-03-04T16:06:21.616Z,95870.64
2018-03-04T16:08:49.883Z,95865.25
2018-03-04T16:11:19.026Z,95859.39
2018-03-04T16:13:47.338Z,95846.30
2018-03-04T16:16:15.689Z,95841.72
2018-03-04T16:18:45.501Z,95834.63
2018-03-04T16:21:14.611Z,95829.43
2018-03-04T16:23:42.902Z,95835.53
2018-03-04T16:26:12.212Z,95845.04
2018-03-04T16:28:40.569Z,95846.45
2018-03-04T16:31:09.765Z,95847.57
2018-03-04T16:33:38.856Z,95846.08
2018-03-04T16:36:07.989Z,95844.27
2018-03-04T16:38:36.316Z,95846.57
2018-03-04T16:41:06.103Z,95830.37
2018-03-04T16:43:34.496Z,95840.05
2018-03-04T16:46:02.799Z,95832.06
2018-03-04T16:48:31.880Z,95822.86
2018-03-04T16:51:00.983Z,95825.41
2018-03-04T16:53:29.250Z,95823.63
2018-03-04T16:55:57.508Z,95817.16
2018-03-04T16:58:26.606Z,95818.58
2018-03-04T17:00:54.864Z,95807.73
2018-03-04T17:03:23.190Z,95815.66
2018-03-04T17:05:51.459Z,95812.11
2018-03-04T17:08:19.809Z,95814.20
2018-03-04T17:10:48.095Z,95814.61
2018-03-04T17:13:16.484Z,95805.76
2018-03-04T17:15:44.967Z,95819.99
2018-03-04T17:18:13.311Z,95811.24
2018-03-04T17:20:41.977Z,95814.39
2018-03-04T17:23:10.453Z,95819.78
2018-03-04T17:25:38.755Z,95822.61
2018-03-04T17:28:07.032Z,95831.37
2018-03-04T17:30:35.302Z,95822.69
2018-03-04T17:33:04.391Z,95814.16
2018-03-04T17:35:32.717Z,95811.81
2018-03-04T17:38:01.024Z,95803.73
2018-03-04T17:40:29.291Z,95815.70
2018-03-04T17:42:57.587Z,95797.40
2018-03-04T17:45:25.843Z,95801.30
2018-03-04T17:47:54.111Z,95793.87
2018-03-04T17:50:22.384Z,95801.38
2018-03-04T17:52:50.656Z,95802.34
2018-03-04T17:55:18.989Z,95789.56
2018-03-04T17:57:47.343Z,95798.45
2018-03-04T18:00:15.650Z,95811.35
2018-03-04T18:02:43.980Z,95816.20
2018-03-04T18:05:13.198Z,95819.28
2018-03-04T18:07:41.574Z,95837.44
2018-03-04T18:10:09.905Z,95843.53
2018-03-04T18:12:38.159Z,95829.52
2018-03-04T18:15:06.424Z,95809.87
2018-03-04T18:17:34.734Z,95814.91
2018-03-04T18:20:03.138Z,95804.08
2018-03-04T18:22:32.218Z,95808.45
2018-03-04T18:25:00.563Z,95814.35
2018-03-04T18:27:28.824Z,95815.02
2018-03-04T18:29:57.870Z,95809.08
2018-03-04T18:32:26.132Z,95803.78
2018-03-04T18:34:55.184Z,95807.00
2018-03-04T18:37:23.446Z,95813.55
2018-03-04T18:39:51.732Z,95827.22
2018-03-04T18:42:19.991Z,95819.17
2018-03-04T18:44:49.122Z,95836.05
2018-03-04T18:47:17.443Z,95832.89
2018-03-04T18:49:45.771Z,95833.92
2018-03-04T18:52:14.920Z,95830.94
2018-03-04T18:54:43.247Z,95837.72
2018-03-04T18:57:11.567Z,95846.61
2018-03-04T18:59:39.853Z,95853.78
2018-03-04T19:02:08.212Z,95852.98
2018-03-04T19:04:36.499Z,95853.27
2018-03-04T19:07:04.822Z,95861.16
2018-03-04T19:09:33.110Z,95866.51
2018-03-04T19:12:02.263Z,95871.12
2018-03-04T19:14:30.556Z,95866.77
2018-03-04T19:16:58.840Z,95858.62
2018-03-04T19:19:27.105Z,95847.39
2018-03-04T19:21:56.193Z,95860.23
2018-03-04T19:24:24.544Z,95856.96
2018-03-04T19:26:52.852Z,95860.44
2018-03-04T19:29:21.164Z,95855.55
2018-03-04T19:31:49.496Z,95863.23
2018-03-04T19:34:18.531Z,95873.58
2018-03-04T19:36:47.000Z,95868.63
2018-03-04T19:39:15.340Z,95873.31
2018-03-04T19:41:43.788Z,95907.03
2018-03-04T19:44:12.108Z,95876.36
2018-03-04T19:46:40.377Z,95882.55
2018-03-04T19:49:08.656Z,95885.34
2018-03-04T19:51:37.002Z,95885.09
2018-03-04T19:54:06.031Z,95876.09
2018-03-04T19:56:35.113Z,95881.55
2018-03-04T19:59:03.451Z,95877.66
2018-03-04T20:01:31.741Z,95879.33
2018-03-04T20:04:00.032Z,95862.50
2018-03-04T20:06:28.369Z,95855.74
2018-03-04T20:08:56.653Z,95861.45
2018-03-04T20:11:24.937Z,95851.11
2018-03-04T20:13:53.192Z,95861.07
2018-03-04T20:16:21.466Z,95886.38
2018-03-04T20:18:50.517Z,95877.95
2018-03-04T20:21:19.025Z,95892.45
2018-03-04T20:23:47.309Z,95902.13
2018-03-04T20:26:15.682Z,95909.58
2018-03-04T20:28:43.996Z,95909.18
2018-03-04T20:31:13.257Z,95912.09
2018-03-04T20:33:41.722Z,95909.59
2018-03-04T20:36:10.057Z,95919.78
2018-03-04T20:38:38.324Z,95918.58
2018-03-04T20:41:07.381Z,95919.19
2018-03-04T20:43:35.728Z,95927.64
2018-03-04T20:46:04.031Z,95925.42
2018-03-04T20:48:32.323Z,95944.20
2018-03-04T20:51:00.584Z,95945.66
2018-03-04T20:53:29.648Z,95937.63
2018-03-04T20:55:57.913Z,95951.00
2018-03-04T20:58:26.211Z,95947.29
2018-03-04T21:00:54.471Z,95948.63
2018-03-04T21:03:22.759Z,95955.22
2018-03-04T21:05:51.818Z,95953.10
2018-03-04T21:08:20.092Z,95954.42
2018-03-04T21:10:48.381Z,95949.29
2018-03-04T21:13:16.736Z,95953.65
2018-03-04T21:15:45.115Z,95958.00
2018-03-04T21:18:13.636Z,95957.73
2018-03-04T21:20:42.082Z,95958.55
2018-03-04T21:23:10.451Z,95961.03
2018-03-04T21:25:39.534Z,95957.60
2018-03-04T21:28:07.844Z,95967.78
2018-03-04T21:30:37.101Z,95961.58
2018-03-04T21:33:06.148Z,95959.85
2018-03-04T21:35:34.476Z,95969.63
2018-03-04T21:38:02.848Z,95964.47
2018-03-04T21:40:31.890Z,95973.20
2018-03-04T21:43:00.936Z,95969.63
2018-03-04T21:45:29.291Z,95966.87
2018-03-04T21:47:58.327Z,95970.30
2018-03-04T21:50:26.635Z,95969.63
2018-03-04T21:52:54.977Z,95972.42
2018-03-04T21:55:24.015Z,95971.63
2018-03-04T21:57:52.308Z,95974.00
2018-03-04T22:00:21.323Z,95976.91
2018-03-04T22:02:49.605Z,95986.01
2018-03-04T22:05:17.938Z,95986.69
2018-03-04T22:07:46.274Z,95992.64
2018-03-04T22:10:14.704Z,96002.03
2018-03-04T22:12:43.841Z,96004.80
2018-03-04T22:15:12.213Z,96005.98
2018-03-04T22:17:40.497Z,96007.31
2018-03-04T22:20:08.748Z,96015.13
2018-03-04T22:22:37.052Z,96019.08
2018-03-04T22:25:05.316Z,96021.60
2018-03-04T22:27:34.431Z,96017.62
2018-03-04T22:30:02.762Z,96025.94
2018-03-04T22:32:31.136Z,96025.69
2018-03-04T22:35:00.240Z,96027.67
2018-03-04T22:37:28.515Z,96030.56
2018-03-04T22:39:58.457Z,96033.60
2018-03-04T22:42:26.731Z,96035.56
2018-03-04T22:44:54.997Z,96033.45
2018-03-04T22:47:24.749Z,96035.20
2018-03-04T22:49:53.017Z,96053.61
2018-03-04T22:52:22.028Z,96049.09
2018-03-04T22:54:51.156Z,96060.41
2018-03-04T22:57:19.404Z,96055.62
2018-03-04T22:59:47.718Z,96058.41
2018-03-04T23:02:16.118Z,96056.42
2018-03-04T23:04:44.548Z,96063.97
2018-03-04T23:07:13.030Z,96073.92
2018-03-04T23:09:41.446Z,96080.83
2018-03-04T23:12:09.780Z,96079.36
2018-03-04T23:14:38.106Z,96078.56
2018-03-04T23:17:06.374Z,96085.20
2018-03-04T23:19:34.653Z,96090.48
2018-03-04T23:22:03.016Z,96095.25
2018-03-04T23:24:31.287Z,96087.34
2018-03-04T23:26:59.543Z,96083.22
2018-03-04T23:29:27.812Z,96090.91
2018-03-04T23:31:56.070Z,96087.61
2018-03-04T23:34:24.330Z,96089.04
2018-03-04T23:36:52.581Z,96101.08
2018-03-04T23:39:20.840Z,96103.73
2018-03-04T23:41:49.117Z,96091.31
2018-03-04T23:44:17.477Z,96097.78
2018-03-04T23:46:45.750Z,96094.07
2018-03-04T23:49:14.143Z,96100.44
2018-03-04T23:51:42.493Z,96101.20
2018-03-04T23:54:11.634Z,96103.22
2018-03-04T23:56:39.887Z,96102.14
2018-03-04T23:59:09.652Z,96108.09
